Summerland, Canada
Current Conditions -  °F | °C
As of 9:00 AM on Sunday 23 Nov 2014 (Local Time) from CYYF Reporting Station
Broken Clouds Broken Clouds  
Wind Chill: 25°   Ceiling: 8000
Heat Index: 36°   Visibility: 15mi
Dew Point: 28°   Wind: 20mph
Humidity: 75%   Direction: 180°S
Pressure: 29.96"   Gusts: 25mph
Location:  49.6°N, 119.68°W
Report Text: CYYF 231700Z 18017G22KT 15SM FEW045 BKN080 BKN170 02/M02 A2996 RMK SC1AC4AC2 SLP157
Loading
Personal Weather Stations






























Interactive Weather Map New forecast layout! Learn more

10-Day Weather Forecast

Advertisements
Track Severe Weather on mobile